Time;durP1;ratioP1;P1;durP2;ratioP2;P2;SDS_P1;SDS_P2;PMS_P1;PMS_P2;Temp;Humidity;BMP_temperature;BMP_pressure;BME280_temperature;BME280_humidity;BME280_pressure;Samples;Min_cycle;Max_cycle;Signal;HPM_P1;HPM_P2
2023/05/28 00:01:09;;;;;;;;;;;;;;;22.17;50.13;101212.13;5004169;28;20221;-85
2023/05/28 00:03:36;;;;;;;;;;;;;;;22.16;49.32;101213.13;5011665;28;19995;-85
2023/05/28 00:06:04;;;;;;;;;;;;;;;22.13;49.69;101210.81;5007784;28;20471;-85
2023/05/28 00:08:31;;;;;;;;;;;;;;;22.10;49.90;101200.41;5010095;28;19935;-85
2023/05/28 00:10:59;;;;;;;;;;;;;;;22.02;49.88;101204.13;5009415;28;20012;-85
2023/05/28 00:13:27;;;;;;;;;;;;;;;22.06;50.01;101196.44;5017379;28;19935;-85
2023/05/28 00:15:56;;;;;;;;;;;;;;;22.21;50.33;101182.81;5012660;28;19975;-84
2023/05/28 00:18:23;;;;;;;;;;;;;;;22.31;50.00;101178.75;5002814;28;19994;-84
2023/05/28 00:20:52;;;;;;;;;;;;;;;22.22;51.05;101188.03;5008515;28;19978;-84
2023/05/28 00:23:19;;;;;;;;;;;;;;;22.08;51.55;101178.97;5017516;28;20337;-84
2023/05/28 00:25:46;;;;;;;;;;;;;;;22.03;51.03;101180.59;4999467;28;20292;-84
2023/05/28 00:28:13;;;;;;;;;;;;;;;21.93;51.23;101170.16;5010722;28;19925;-84
2023/05/28 00:30:39;;;;;;;;;;;;;;;21.92;50.65;101172.03;4994611;28;19931;-84
2023/05/28 00:33:06;;;;;;;;;;;;;;;21.80;51.17;101168.19;4980195;28;19929;-85
2023/05/28 00:35:33;;;;;;;;;;;;;;;21.86;51.12;101175.50;4985522;28;20111;-84
2023/05/28 00:38:00;;;;;;;;;;;;;;;21.96;50.89;101173.28;4990500;28;19925;-84
2023/05/28 00:40:26;;;;;;;;;;;;;;;22.11;50.47;101161.50;4991338;28;20012;-84
2023/05/28 00:42:53;;;;;;;;;;;;;;;22.13;50.26;101175.69;5004465;28;19932;-84
2023/05/28 00:45:20;;;;;;;;;;;;;;;21.67;51.67;101128.38;5006073;28;19931;-84
2023/05/28 00:47:49;;;;;;;;;;;;;;;21.52;51.84;101120.38;5012088;28;20341;-84
2023/05/28 00:50:17;;;;;;;;;;;;;;;21.74;51.88;101167.09;5009284;28;19951;-84
2023/05/28 00:52:47;;;;;;;;;;;;;;;21.76;52.29;101169.63;5007718;28;20085;-84
2023/05/28 00:55:14;;;;;;;;;;;;;;;21.73;52.69;101161.91;5010841;28;20396;-84
2023/05/28 00:57:42;;;;;;;;;;;;;;;21.65;52.44;101162.03;5015615;28;20447;-84
2023/05/28 01:00:09;;;;;;;;;;;;;;;21.60;53.23;101159.91;5013058;28;19936;-85
2023/05/28 01:02:36;;;;;;;;;;;;;;;21.56;53.53;101158.66;5011783;28;19932;-85
2023/05/28 01:05:09;;;;;;;;;;;;;;;21.55;53.26;101157.81;4976378;28;20159;-85
2023/05/28 01:07:42;;;;;;;;;;;;;;;21.12;53.76;101097.59;4975612;28;20252;-84
2023/05/28 01:10:21;;;;;;;;;;;;;;;21.13;53.15;101115.44;4964511;28;19929;-84
2023/05/28 01:13:01;;;;;;;;;;;;;;;21.51;52.76;101158.41;4961899;28;19932;-85
2023/05/28 01:15:31;;;;;;;;;;;;;;;21.65;51.29;101162.03;4998766;28;20140;-85
2023/05/28 01:18:01;;;;;;;;;;;;;;;21.61;51.62;101152.66;5007560;28;20747;-85
2023/05/28 01:20:33;;;;;;;;;;;;;;;21.58;51.29;101153.91;5004473;28;19932;-85
2023/05/28 01:23:11;;;;;;;;;;;;;;;21.50;52.35;101160.25;4997033;28;20129;-84
2023/05/28 01:25:38;;;;;;;;;;;;;;;21.39;53.43;101157.22;5001645;28;19932;-86
2023/05/28 01:28:14;;;;;;;;;;;;;;;21.36;53.93;101158.47;5010529;28;20434;-85
2023/05/28 01:30:46;;;;;;;;;;;;;;;21.30;53.63;101164.63;5001161;28;20614;-85
2023/05/28 01:33:18;;;;;;;;;;;;;;;21.22;54.14;101157.50;4998741;28;20313;-84
2023/05/28 01:35:46;;;;;;;;;;;;;;;20.84;54.33;101106.44;4996328;28;19925;-84
2023/05/28 01:38:14;;;;;;;;;;;;;;;21.17;53.86;101156.41;5016293;28;20055;-85
2023/05/28 01:40:43;;;;;;;;;;;;;;;21.21;53.92;101157.66;5004011;28;19987;-84
2023/05/28 01:43:12;;;;;;;;;;;;;;;21.13;54.32;101162.16;4987522;28;19936;-85
2023/05/28 01:45:42;;;;;;;;;;;;;;;21.13;54.25;101162.16;4983399;28;19954;-85
2023/05/28 01:48:13;;;;;;;;;;;;;;;20.78;54.17;101118.00;4950910;28;19991;-84
2023/05/28 01:50:54;;;;;;;;;;;;;;;20.76;54.99;101111.13;4969277;28;19955;-84
2023/05/28 01:53:25;;;;;;;;;;;;;;;20.74;54.78;101115.88;4978865;28;20445;-84
2023/05/28 01:55:55;;;;;;;;;;;;;;;20.98;54.65;101160.56;4981476;28;19979;-85
2023/05/28 01:58:30;;;;;;;;;;;;;;;21.00;54.96;101164.75;4992515;28;20023;-85
2023/05/28 02:01:12;;;;;;;;;;;;;;;20.99;55.03;101165.75;4994260;28;20161;-85
2023/05/28 02:03:39;;;;;;;;;;;;;;;21.03;54.46;101152.72;5005048;28;20453;-85
2023/05/28 02:06:09;;;;;;;;;;;;;;;20.89;54.60;101157.13;4997710;28;20377;-85
2023/05/28 02:08:38;;;;;;;;;;;;;;;20.91;53.95;101157.78;5004332;28;20143;-85
2023/05/28 02:11:11;;;;;;;;;;;;;;;20.85;53.82;101156.69;5003156;28;20211;-85
2023/05/28 02:13:44;;;;;;;;;;;;;;;20.81;54.48;101157.25;4987095;28;20122;-85
2023/05/28 02:16:17;;;;;;;;;;;;;;;20.79;54.86;101152.03;4987798;28;19986;-84
2023/05/28 02:18:49;;;;;;;;;;;;;;;20.80;54.88;101147.47;4994009;28;19925;-85
2023/05/28 02:21:22;;;;;;;;;;;;;;;20.73;55.03;101142.03;4979125;28;20307;-85
2023/05/28 02:23:49;;;;;;;;;;;;;;;20.72;55.05;101134.13;5004761;28;19925;-85
2023/05/28 02:26:18;;;;;;;;;;;;;;;20.72;54.99;101140.34;4977490;28;19932;-86
2023/05/28 02:28:52;;;;;;;;;;;;;;;20.20;55.53;101061.28;4998240;28;20504;-84
2023/05/28 02:31:25;;;;;;;;;;;;;;;20.75;54.83;101145.34;5003696;28;19971;-84
2023/05/28 02:33:51;;;;;;;;;;;;;;;20.69;55.24;101141.56;4988733;28;20193;-84
2023/05/28 02:36:18;;;;;;;;;;;;;;;20.72;55.09;101147.59;5006662;28;20250;-85
2023/05/28 02:38:46;;;;;;;;;;;;;;;20.67;54.97;101149.00;4992108;28;19929;-84
2023/05/28 02:41:15;;;;;;;;;;;;;;;20.30;55.20;101087.13;4969743;28;19932;-85
2023/05/28 02:43:50;;;;;;;;;;;;;;;20.52;55.49;101140.09;4984206;28;20639;-85
2023/05/28 02:46:25;;;;;;;;;;;;;;;20.18;55.85;101101.06;5000500;28;19936;-84
2023/05/28 02:48:57;;;;;;;;;;;;;;;20.42;55.58;101142.25;4973549;28;19924;-85
2023/05/28 02:51:26;;;;;;;;;;;;;;;20.41;56.15;101138.72;4987437;28;19975;-84
2023/05/28 02:53:53;;;;;;;;;;;;;;;20.40;56.26;101144.28;4976317;28;19925;-84
2023/05/28 02:56:23;;;;;;;;;;;;;;;20.10;56.32;101103.88;4994090;28;19940;-84
2023/05/28 02:58:56;;;;;;;;;;;;;;;20.35;56.55;101149.41;4995334;28;19968;-84
2023/05/28 03:01:30;;;;;;;;;;;;;;;20.33;56.85;101148.75;4955492;28;19937;-84
2023/05/28 03:04:05;;;;;;;;;;;;;;;20.41;56.36;101151.34;4962315;28;20330;-83
2023/05/28 03:06:33;;;;;;;;;;;;;;;20.53;56.76;101147.13;4966873;28;20172;-85
2023/05/28 03:09:02;;;;;;;;;;;;;;;20.48;57.03;101154.97;4985653;28;20228;-82
2023/05/28 03:11:35;;;;;;;;;;;;;;;20.40;57.21;101157.75;4995871;28;20211;-85
2023/05/28 03:14:02;;;;;;;;;;;;;;;20.35;57.08;101155.63;4982892;28;19925;-84
2023/05/28 03:16:32;;;;;;;;;;;;;;;20.28;57.16;101152.84;4990988;28;19925;-85
2023/05/28 03:18:59;;;;;;;;;;;;;;;20.33;56.89;101159.53;4987082;28;19925;-84
2023/05/28 03:21:26;;;;;;;;;;;;;;;20.36;56.68;101157.28;5012748;28;19929;-86
2023/05/28 03:23:53;;;;;;;;;;;;;;;20.36;57.07;101161.84;4992534;28;19925;-85
2023/05/28 03:26:21;;;;;;;;;;;;;;;20.43;57.20;101158.22;4992320;28;19933;-85
2023/05/28 03:28:48;;;;;;;;;;;;;;;20.38;57.58;101162.50;5004048;28;19925;-85
2023/05/28 03:31:17;;;;;;;;;;;;;;;20.31;57.52;101148.94;4978608;28;20645;-84
2023/05/28 03:33:44;;;;;;;;;;;;;;;20.30;57.81;101155.34;4994054;28;20234;-86
2023/05/28 03:36:13;;;;;;;;;;;;;;;20.35;57.91;101149.41;4999812;28;19995;-85
2023/05/28 03:38:39;;;;;;;;;;;;;;;20.34;57.53;101147.72;4975212;28;19969;-85
2023/05/28 03:41:06;;;;;;;;;;;;;;;20.26;57.98;101160.28;4991481;28;19926;-85
2023/05/28 03:43:33;;;;;;;;;;;;;;;20.30;57.22;101151.84;5021814;28;20183;-84
2023/05/28 03:46:00;;;;;;;;;;;;;;;20.20;56.84;101152.13;5011111;28;20417;-85
2023/05/28 03:48:27;;;;;;;;;;;;;;;20.17;57.00;101157.84;5035080;28;19932;-85
2023/05/28 03:50:53;;;;;;;;;;;;;;;20.19;56.91;101151.25;5012854;28;20019;-84
2023/05/28 03:53:20;;;;;;;;;;;;;;;20.22;57.35;101159.00;5016273;28;20325;-85
2023/05/28 03:55:47;;;;;;;;;;;;;;;20.19;57.29;101153.13;5002462;28;19925;-84
2023/05/28 03:58:15;;;;;;;;;;;;;;;19.88;57.21;101120.97;5025102;28;19936;-83
2023/05/28 04:00:44;;;;;;;;;;;;;;;20.19;57.38;101166.59;5024044;28;19928;-85
2023/05/28 04:03:11;;;;;;;;;;;;;;;20.20;56.91;101169.13;5011297;28;19929;-83
2023/05/28 04:05:38;;;;;;;;;;;;;;;20.21;56.91;101170.78;5002597;28;20268;-85
2023/05/28 04:08:05;;;;;;;;;;;;;;;20.17;57.51;101168.63;5008001;28;19925;-84
2023/05/28 04:10:31;;;;;;;;;;;;;;;20.14;57.77;101172.53;4996908;28;20378;-83
2023/05/28 04:12:58;;;;;;;;;;;;;;;20.11;57.94;101177.47;5001209;28;20565;-84
2023/05/28 04:15:25;;;;;;;;;;;;;;;20.11;58.06;101181.00;4998611;28;20423;-84
2023/05/28 04:17:52;;;;;;;;;;;;;;;20.15;58.24;101181.50;4988561;28;20040;-84
2023/05/28 04:20:21;;;;;;;;;;;;;;;20.13;58.33;101180.84;4994732;28;20158;-84
2023/05/28 04:22:50;;;;;;;;;;;;;;;20.14;58.50;101175.25;4983369;28;19929;-83
2023/05/28 04:25:19;;;;;;;;;;;;;;;20.22;57.83;101175.16;4987278;28;20197;-83
2023/05/28 04:27:47;;;;;;;;;;;;;;;20.11;58.79;101174.78;5004464;28;19951;-84
2023/05/28 04:30:16;;;;;;;;;;;;;;;19.75;58.85;101117.03;4982562;28;19932;-84
2023/05/28 04:32:51;;;;;;;;;;;;;;;20.05;58.90;101176.38;4977459;28;20415;-83
2023/05/28 04:35:18;;;;;;;;;;;;;;;19.97;59.27;101171.06;5002690;28;19935;-83
2023/05/28 04:37:45;;;;;;;;;;;;;;;20.09;58.37;101166.88;4996802;28;19941;-83
2023/05/28 04:40:12;;;;;;;;;;;;;;;19.98;59.52;101178.13;4994390;28;19925;-83
2023/05/28 04:42:42;;;;;;;;;;;;;;;20.20;58.62;101171.81;4985663;28;19952;-84
2023/05/28 04:45:10;;;;;;;;;;;;;;;20.06;59.73;101172.66;4995345;28;20409;-84
2023/05/28 04:47:37;;;;;;;;;;;;;;;20.14;58.91;101177.09;4986302;28;20205;-83
2023/05/28 04:50:04;;;;;;;;;;;;;;;20.06;59.24;101178.03;4986346;28;19925;-84
2023/05/28 04:52:32;;;;;;;;;;;;;;;20.09;59.44;101177.66;4998526;28;19931;-83
2023/05/28 04:54:59;;;;;;;;;;;;;;;20.05;59.48;101179.06;5012019;28;19925;-84
2023/05/28 04:57:29;;;;;;;;;;;;;;;20.04;59.49;101180.06;5004592;28;19925;-84
2023/05/28 04:59:56;;;;;;;;;;;;;;;20.10;58.96;101179.34;4952407;28;20400;-84
2023/05/28 05:02:23;;;;;;;;;;;;;;;20.21;59.09;101175.34;5000831;28;20116;-84
2023/05/28 05:04:50;;;;;;;;;;;;;;;20.34;58.62;101174.69;5010420;28;20764;-84
2023/05/28 05:07:17;;;;;;;;;;;;;;;20.34;58.60;101171.97;5001312;28;19924;-83
2023/05/28 05:09:43;;;;;;;;;;;;;;;20.41;58.31;101179.16;4998805;28;20134;-84
2023/05/28 05:12:12;;;;;;;;;;;;;;;20.38;57.95;101179.50;5010487;28;19932;-84
2023/05/28 05:14:39;;;;;;;;;;;;;;;20.48;58.04;101182.75;5005436;28;20305;-84
2023/05/28 05:17:08;;;;;;;;;;;;;;;20.19;57.51;101123.47;4997314;28;19924;-84
2023/05/28 05:19:35;;;;;;;;;;;;;;;20.47;57.14;101180.25;5017348;28;19978;-84
2023/05/28 05:22:03;;;;;;;;;;;;;;;20.17;58.47;101131.75;5009248;28;19925;-84
2023/05/28 05:24:34;;;;;;;;;;;;;;;20.10;59.17;101095.78;5014945;28;19936;-84
2023/05/28 05:27:03;;;;;;;;;;;;;;;20.39;58.32;101123.72;5010495;28;19925;-84
2023/05/28 05:29:30;;;;;;;;;;;;;;;20.72;58.75;101177.28;5004330;28;19924;-85
2023/05/28 05:31:58;;;;;;;;;;;;;;;20.45;58.57;101134.59;5001733;28;19931;-84
2023/05/28 05:34:25;;;;;;;;;;;;;;;20.88;58.44;101182.47;4971068;28;20577;-85
2023/05/28 05:36:54;;;;;;;;;;;;;;;20.90;57.01;101137.25;4985156;28;20097;-84
2023/05/28 05:39:21;;;;;;;;;;;;;;;21.12;56.62;101186.66;4974759;28;19925;-84
2023/05/28 05:41:48;;;;;;;;;;;;;;;21.07;56.85;101176.44;4974258;28;19925;-85
2023/05/28 05:44:17;;;;;;;;;;;;;;;21.13;56.63;101177.53;4980469;28;19929;-84
2023/05/28 05:46:43;;;;;;;;;;;;;;;21.25;57.47;101188.66;4984240;28;19925;-85
2023/05/28 05:49:10;;;;;;;;;;;;;;;21.28;57.47;101180.16;4983146;28;20170;-84
2023/05/28 05:51:37;;;;;;;;;;;;;;;21.32;56.29;101181.47;4979022;28;20363;-85
2023/05/28 05:54:04;;;;;;;;;;;;;;;21.38;56.70;101180.69;4996992;28;19925;-85
2023/05/28 05:56:34;;;;;;;;;;;;;;;21.08;56.82;101126.81;5000671;28;20024;-84
2023/05/28 05:59:11;;;;;;;;;;;;;;;21.34;57.42;101172.13;4987371;28;19929;-84
2023/05/28 06:01:41;;;;;;;;;;;;;;;21.33;57.18;101169.63;4972582;28;20109;-85
2023/05/28 06:04:08;;;;;;;;;;;;;;;21.30;56.79;101170.03;4963936;28;19932;-85
2023/05/28 06:06:38;;;;;;;;;;;;;;;21.26;56.47;101183.09;4995914;28;20325;-86
2023/05/28 06:09:06;;;;;;;;;;;;;;;21.33;56.56;101180.44;5007822;28;19968;-85
2023/05/28 06:11:35;;;;;;;;;;;;;;;21.35;56.73;101181.06;5003470;28;19924;-84
2023/05/28 06:14:02;;;;;;;;;;;;;;;21.39;56.42;101174.28;4993359;28;19936;-85
2023/05/28 06:16:29;;;;;;;;;;;;;;;21.47;56.19;101179.56;5012927;28;20345;-85
2023/05/28 06:18:56;;;;;;;;;;;;;;;21.49;55.80;101173.97;4981157;28;20297;-85
2023/05/28 06:21:26;;;;;;;;;;;;;;;21.54;55.66;101174.22;5010088;28;20023;-85
2023/05/28 06:23:53;;;;;;;;;;;;;;;21.51;56.39;101177.31;5008880;28;20192;-86
2023/05/28 06:26:29;;;;;;;;;;;;;;;21.54;56.35;101176.91;4993510;28;20349;-83
2023/05/28 06:28:58;;;;;;;;;;;;;;;21.68;55.71;101177.88;4988558;28;19932;-86
2023/05/28 06:31:30;;;;;;;;;;;;;;;21.68;55.08;101175.16;5014158;28;20253;-84
2023/05/28 06:33:57;;;;;;;;;;;;;;;21.77;55.17;101171.28;5012675;28;20015;-85
2023/05/28 06:36:24;;;;;;;;;;;;;;;21.83;54.11;101170.50;5018236;28;19936;-84
2023/05/28 06:38:51;;;;;;;;;;;;;;;22.00;53.56;101164.78;5009633;28;20653;-87
2023/05/28 06:41:19;;;;;;;;;;;;;;;21.82;53.90;101117.50;5005131;28;20079;-85
2023/05/28 06:43:47;;;;;;;;;;;;;;;22.20;53.81;101168.47;4994834;28;20064;-86
2023/05/28 06:46:14;;;;;;;;;;;;;;;22.26;53.70;101173.09;4990329;28;19929;-85
2023/05/28 06:48:43;;;;;;;;;;;;;;;22.33;52.39;101175.81;5011573;28;19936;-86
2023/05/28 06:51:11;;;;;;;;;;;;;;;22.31;51.83;101173.34;4999080;28;19939;-85
2023/05/28 06:53:38;;;;;;;;;;;;;;;22.34;52.43;101172.91;4996885;28;20134;-85
2023/05/28 06:56:08;;;;;;;;;;;;;;;22.43;51.68;101170.03;4986282;28;20169;-84
2023/05/28 06:58:39;;;;;;;;;;;;;;;22.46;50.83;101175.91;5003830;28;20378;-85
2023/05/28 07:01:06;;;;;;;;;;;;;;;22.50;49.31;101176.31;5003800;28;20016;-85
2023/05/28 07:03:35;;;;;;;;;;;;;;;22.63;49.94;101176.38;4987740;28;19972;-86
2023/05/28 07:06:05;;;;;;;;;;;;;;;22.68;49.44;101171.19;5010264;28;19941;-85
2023/05/28 07:08:32;;;;;;;;;;;;;;;22.72;49.93;101175.19;4989151;28;20389;-84
2023/05/28 07:10:59;;;;;;;;;;;;;;;22.82;49.59;101174.81;4980299;28;19929;-85
2023/05/28 07:13:26;;;;;;;;;;;;;;;22.93;49.54;101171.47;4995257;28;20134;-86
2023/05/28 07:15:53;;;;;;;;;;;;;;;23.05;48.75;101169.03;5011741;28;19956;-85
2023/05/28 07:18:26;;;;;;;;;;;;;;;22.89;48.59;101126.06;5000051;28;20194;-85
2023/05/28 07:20:53;;;;;;;;;;;;;;;23.23;48.95;101176.59;5008134;28;20041;-86
2023/05/28 07:23:20;;;;;;;;;;;;;;;23.31;48.33;101172.84;5003133;28;20183;-86
2023/05/28 07:25:47;;;;;;;;;;;;;;;23.24;48.31;101170.94;5005146;28;19975;-86
2023/05/28 07:28:14;;;;;;;;;;;;;;;23.28;47.80;101167.81;4986041;28;20299;-86
2023/05/28 07:30:41;;;;;;;;;;;;;;;23.38;47.47;101171.00;4985773;28;20774;-86
2023/05/28 07:33:12;;;;;;;;;;;;;;;23.44;47.14;101172.84;5009475;28;20329;-86
2023/05/28 07:35:42;;;;;;;;;;;;;;;23.17;46.43;101121.34;5001245;28;20215;-84
2023/05/28 07:38:17;;;;;;;;;;;;;;;23.58;46.19;101171.81;4999487;28;20433;-85
2023/05/28 07:40:44;;;;;;;;;;;;;;;23.66;46.66;101170.75;5015661;28;20454;-85
2023/05/28 07:43:10;;;;;;;;;;;;;;;23.76;45.65;101181.22;4983932;28;19932;-86
2023/05/28 07:45:37;;;;;;;;;;;;;;;23.76;45.08;101181.22;4990125;28;19925;-85
2023/05/28 07:48:04;;;;;;;;;;;;;;;23.78;44.99;101177.25;4995554;28;19983;-85
2023/05/28 07:50:31;;;;;;;;;;;;;;;23.83;45.15;101177.44;5003541;28;20169;-85
2023/05/28 07:53:01;;;;;;;;;;;;;;;23.51;44.77;101119.50;4998571;28;19960;-85
2023/05/28 07:55:31;;;;;;;;;;;;;;;23.90;45.73;101172.03;5003309;28;19924;-86
2023/05/28 07:58:01;;;;;;;;;;;;;;;23.96;45.51;101171.19;5015310;28;19925;-85
2023/05/28 08:00:28;;;;;;;;;;;;;;;24.01;45.77;101171.41;4980023;28;20047;-84
2023/05/28 08:02:55;;;;;;;;;;;;;;;24.13;44.33;101165.31;5011508;28;20012;-84
2023/05/28 08:05:27;;;;;;;;;;;;;;;23.63;42.89;101087.19;5021450;28;20149;-83
2023/05/28 08:07:53;;;;;;;;;;;;;;;24.12;43.71;101158.22;5016280;28;20037;-84
2023/05/28 08:10:20;;;;;;;;;;;;;;;24.12;43.84;101158.22;5023279;28;19925;-85
2023/05/28 08:12:47;;;;;;;;;;;;;;;24.24;43.30;101153.81;4990566;28;19936;-84
2023/05/28 08:15:14;;;;;;;;;;;;;;;24.06;42.50;101101.09;4992089;28;20322;-85
2023/05/28 08:17:40;;;;;;;;;;;;;;;24.37;42.73;101145.63;5005816;28;20478;-86
2023/05/28 08:20:11;;;;;;;;;;;;;;;24.12;41.51;101087.72;5001648;28;20545;-84
2023/05/28 08:22:44;;;;;;;;;;;;;;;24.61;41.67;101151.41;5006580;28;20294;-84
2023/05/28 08:25:11;;;;;;;;;;;;;;;24.74;40.95;101135.06;5002878;28;20339;-87
2023/05/28 08:27:38;;;;;;;;;;;;;;;24.70;40.27;101133.81;5002319;28;20141;-85
2023/05/28 08:30:08;;;;;;;;;;;;;;;24.74;41.24;101129.63;5011937;28;20042;-83
2023/05/28 08:32:35;;;;;;;;;;;;;;;24.82;41.33;101126.66;4995816;28;19925;-84
2023/05/28 08:35:06;;;;;;;;;;;;;;;25.00;41.58;101128.63;5004245;28;20062;-83
2023/05/28 08:37:35;;;;;;;;;;;;;;;24.80;40.28;101085.28;5016664;28;19925;-82
2023/05/28 08:40:07;;;;;;;;;;;;;;;25.17;40.33;101123.50;5010579;28;19925;-81
2023/05/28 08:42:34;;;;;;;;;;;;;;;25.29;39.90;101132.63;4987783;28;20386;-82
2023/05/28 08:45:07;;;;;;;;;;;;;;;25.41;40.10;101123.75;5018826;28;19939;-81
2023/05/28 08:47:36;;;;;;;;;;;;;;;25.32;40.03;101126.75;4998824;28;20131;-83
2023/05/28 08:50:07;;;;;;;;;;;;;;;25.29;38.73;101121.78;5006148;28;20017;-84
2023/05/28 08:52:33;;;;;;;;;;;;;;;25.33;40.24;101117.53;4989031;28;19925;-84
2023/05/28 08:55:00;;;;;;;;;;;;;;;25.13;39.82;101070.66;5007694;28;20378;-84
2023/05/28 08:57:28;;;;;;;;;;;;;;;25.49;39.58;101115.34;5016619;28;19936;-84
2023/05/28 08:59:57;;;;;;;;;;;;;;;25.57;39.07;101112.31;4983382;28;20367;-83
2023/05/28 09:02:24;;;;;;;;;;;;;;;25.50;39.28;101111.56;5012952;28;20245;-84
2023/05/28 09:04:51;;;;;;;;;;;;;;;25.57;39.90;101113.16;5004341;28;19924;-84
2023/05/28 09:07:17;;;;;;;;;;;;;;;25.82;39.27;101108.72;5011483;28;20183;-84
2023/05/28 09:09:44;;;;;;;;;;;;;;;25.77;38.61;101114.84;5010381;28;19925;-84
2023/05/28 09:12:20;;;;;;;;;;;;;;;25.90;38.08;101108.44;5013810;28;19925;-85
2023/05/28 09:14:49;;;;;;;;;;;;;;;26.07;38.25;101105.97;5013808;28;19979;-85
2023/05/28 09:17:16;;;;;;;;;;;;;;;26.03;39.15;101100.16;5009648;28;19924;-85
2023/05/28 09:19:52;;;;;;;;;;;;;;;25.99;38.38;101109.81;5010492;28;20015;-85
2023/05/28 09:22:19;;;;;;;;;;;;;;;25.81;39.23;101102.47;5012625;28;19932;-84
2023/05/28 09:24:49;;;;;;;;;;;;;;;25.81;39.66;101102.47;4980357;28;20601;-85
2023/05/28 09:27:19;;;;;;;;;;;;;;;25.84;40.44;101093.03;5003536;28;19925;-85
2023/05/28 09:29:46;;;;;;;;;;;;;;;25.90;39.69;101103.00;5013329;28;19947;-85
2023/05/28 09:32:17;;;;;;;;;;;;;;;26.09;39.95;101091.06;5012414;28;20405;-85
2023/05/28 09:34:50;;;;;;;;;;;;;;;25.78;40.33;101030.31;4999711;28;20148;-84
2023/05/28 09:37:23;;;;;;;;;;;;;;;26.27;39.55;101092.97;5010141;28;20338;-85
2023/05/28 09:39:59;;;;;;;;;;;;;;;26.33;38.41;101089.31;5014033;28;19925;-84
2023/05/28 09:42:33;;;;;;;;;;;;;;;26.37;38.20;101089.69;5009104;28;20373;-85
2023/05/28 09:45:00;;;;;;;;;;;;;;;26.39;37.20;101090.31;5005144;28;20596;-85
2023/05/28 09:47:27;;;;;;;;;;;;;;;26.13;37.01;101045.22;5011396;28;20380;-84
2023/05/28 09:49:54;;;;;;;;;;;;;;;26.47;37.14;101079.09;4989664;28;19932;-86
2023/05/28 09:52:22;;;;;;;;;;;;;;;26.51;37.56;101080.31;5010522;28;20024;-85
2023/05/28 09:54:55;;;;;;;;;;;;;;;26.57;37.07;101079.41;4991858;28;19924;-84
2023/05/28 09:57:26;;;;;;;;;;;;;;;26.82;37.22;101071.09;4997540;28;19932;-84
2023/05/28 09:59:55;;;;;;;;;;;;;;;26.91;37.28;101081.63;4994749;28;20327;-85
2023/05/28 10:02:27;;;;;;;;;;;;;;;27.10;36.82;101074.22;4936855;28;1913202;-83
2023/05/28 10:04:59;;;;;;;;;;;;;;;27.30;37.23;101071.19;5014186;28;20007;-85
2023/05/28 10:07:28;;;;;;;;;;;;;;;27.52;37.85;101074.16;5011925;28;19925;-84
2023/05/28 10:10:06;;;;;;;;;;;;;;;27.82;37.10;101072.16;5002282;28;20012;-85
2023/05/28 10:12:34;;;;;;;;;;;;;;;27.64;37.06;101074.97;5003562;28;19929;-84
2023/05/28 10:15:01;;;;;;;;;;;;;;;27.74;37.75;101056.09;5019355;28;19972;-85
2023/05/28 10:17:28;;;;;;;;;;;;;;;27.65;37.40;101063.00;5010598;28;20037;-85
2023/05/28 10:19:55;;;;;;;;;;;;;;;27.65;38.06;101071.19;4987854;28;19928;-86
2023/05/28 10:22:22;;;;;;;;;;;;;;;27.74;38.40;101063.44;4995426;28;20456;-83
2023/05/28 10:24:50;;;;;;;;;;;;;;;27.90;37.63;101066.31;5011610;28;19932;-84
2023/05/28 10:27:18;;;;;;;;;;;;;;;28.01;38.25;101071.97;4997028;28;20204;-85
2023/05/28 10:29:46;;;;;;;;;;;;;;;28.18;37.86;101061.97;5010413;28;20582;-85
2023/05/28 10:32:16;;;;;;;;;;;;;;;28.25;37.62;101068.09;4993738;28;19960;-85
2023/05/28 10:34:45;;;;;;;;;;;;;;;27.82;37.30;101009.41;5000468;28;19929;-84
2023/05/28 10:37:22;;;;;;;;;;;;;;;28.15;36.82;101078.00;5013084;28;20023;-85
2023/05/28 10:39:49;;;;;;;;;;;;;;;28.09;36.29;101069.72;4999395;28;20260;-83
2023/05/28 10:42:17;;;;;;;;;;;;;;;27.96;36.84;101077.31;5007859;28;19953;-83
2023/05/28 10:45:04;;;;;;;;;;;;;;;27.82;37.56;101068.56;5009463;28;19935;-84
2023/05/28 10:47:36;;;;;;;;;;;;;;;27.85;37.35;101071.66;4990331;28;19931;-83
2023/05/28 10:50:17;;;;;;;;;;;;;;;27.96;37.71;101069.13;5005073;28;19929;-84
2023/05/28 10:53:10;;;;;;;;;;;;;;;28.12;36.75;101063.75;4998140;28;20292;-83
2023/05/28 10:55:47;;;;;;;;;;;;;;;28.25;37.25;101067.28;4996130;28;19925;-83
2023/05/28 10:58:25;;;;;;;;;;;;;;;28.50;36.11;101058.78;5012335;28;20696;-84
2023/05/28 11:01:19;;;;;;;;;;;;;;;28.51;37.54;101065.91;5006758;28;20008;-84
2023/05/28 11:03:54;;;;;;;;;;;;;;;28.55;36.00;101054.25;5002929;28;19925;-84
2023/05/28 11:06:24;;;;;;;;;;;;;;;28.73;35.55;101047.72;5014080;28;19924;-83
2023/05/28 11:08:51;;;;;;;;;;;;;;;28.75;36.05;101048.31;5015361;28;19931;-84
2023/05/28 11:11:18;;;;;;;;;;;;;;;28.79;35.92;101047.81;5010250;28;19928;-84
2023/05/28 11:13:46;;;;;;;;;;;;;;;29.00;36.54;101047.09;5016790;28;19925;-85
2023/05/28 11:16:14;;;;;;;;;;;;;;;29.26;35.85;101042.88;4994690;28;20603;-83
2023/05/28 11:19:08;;;;;;;;;;;;;;;29.22;35.47;101013.56;5008791;28;20271;-84
2023/05/28 11:21:51;;;;;;;;;;;;;;;29.44;35.86;101033.56;5029122;28;19929;-85
2023/05/28 11:24:18;;;;;;;;;;;;;;;29.53;36.43;101033.97;5018763;28;19925;-84
2023/05/28 11:26:45;;;;;;;;;;;;;;;29.57;35.59;101019.53;5008801;28;20497;-83
2023/05/28 11:29:13;;;;;;;;;;;;;;;29.76;35.38;101024.72;5016086;28;19956;-84
2023/05/28 11:31:42;;;;;;;;;;;;;;;29.94;35.65;101013.47;5000014;28;20355;-83
2023/05/28 11:34:09;;;;;;;;;;;;;;;30.10;35.55;101022.69;5015648;28;20386;-83
2023/05/28 11:36:40;;;;;;;;;;;;;;;30.25;34.87;101024.81;4994304;28;20015;-83
2023/05/28 11:39:10;;;;;;;;;;;;;;;30.29;34.18;100986.75;5011763;28;20014;-83
2023/05/28 11:41:38;;;;;;;;;;;;;;;30.43;34.90;101012.66;5021274;28;19925;-83
2023/05/28 11:44:21;;;;;;;;;;;;;;;30.60;34.61;101018.00;5029038;28;19964;-83
2023/05/28 11:46:55;;;;;;;;;;;;;;;30.81;33.67;101011.63;5007005;28;20134;-83
2023/05/28 11:49:22;;;;;;;;;;;;;;;30.83;33.35;101014.16;5016906;28;20090;-83
2023/05/28 11:51:53;;;;;;;;;;;;;;;30.96;33.18;101012.88;5013981;28;20007;-83
2023/05/28 11:54:20;;;;;;;;;;;;;;;31.11;32.60;101010.22;5015576;28;19929;-84
2023/05/28 11:56:47;;;;;;;;;;;;;;;31.21;31.97;101009.47;5018154;28;19931;-83
2023/05/28 11:59:15;;;;;;;;;;;;;;;31.45;31.92;101010.75;4996196;28;19932;-84
2023/05/28 12:01:42;;;;;;;;;;;;;;;31.32;31.64;100955.53;5019556;28;20322;-83
2023/05/28 12:04:08;;;;;;;;;;;;;;;31.66;31.03;101006.19;5025487;28;19928;-83
2023/05/28 12:06:54;;;;;;;;;;;;;;;31.73;31.63;101009.50;5020337;28;19971;-84
2023/05/28 12:09:21;;;;;;;;;;;;;;;31.71;32.31;101008.13;5009628;28;20049;-83
2023/05/28 12:12:02;;;;;;;;;;;;;;;31.80;32.19;100994.69;4998004;28;20398;-83
2023/05/28 12:14:30;;;;;;;;;;;;;;;31.99;32.13;101000.56;4997209;28;19925;-82
2023/05/28 12:17:03;;;;;;;;;;;;;;;32.04;31.72;101001.44;4983769;28;19948;-82
2023/05/28 12:19:35;;;;;;;;;;;;;;;32.13;31.95;100994.28;4993249;28;19933;-82
2023/05/28 12:22:04;;;;;;;;;;;;;;;32.42;31.57;100990.22;4978970;28;19925;-82
2023/05/28 12:24:31;;;;;;;;;;;;;;;32.34;30.77;100983.34;4997873;28;19972;-82
2023/05/28 12:26:58;;;;;;;;;;;;;;;32.45;30.36;100985.00;5007886;28;20248;-82
2023/05/28 12:29:25;;;;;;;;;;;;;;;32.66;29.60;100976.81;5014999;28;19929;-83
2023/05/28 12:32:02;;;;;;;;;;;;;;;32.93;30.62;100974.56;5010532;28;20537;-83
2023/05/28 12:34:38;;;;;;;;;;;;;;;33.09;30.14;100972.66;4989214;28;19960;-82
2023/05/28 12:37:05;;;;;;;;;;;;;;;33.21;30.20;100964.09;5003854;28;19935;-83
2023/05/28 12:39:32;;;;;;;;;;;;;;;33.31;30.79;100966.00;5001480;28;20217;-83
2023/05/28 12:41:58;;;;;;;;;;;;;;;33.26;29.72;100972.34;5004413;28;20386;-83
2023/05/28 12:44:28;;;;;;;;;;;;;;;33.04;30.52;100920.41;4987061;28;19976;-81
2023/05/28 12:47:01;;;;;;;;;;;;;;;33.52;29.86;100955.72;4999192;28;19982;-83